Time;durP1;ratioP1;P1;durP2;ratioP2;P2;SDS_P1;SDS_P2;PMS_P1;PMS_P2;Temp;Humidity;BMP_temperature;BMP_pressure;BME280_temperature;BME280_humidity;BME280_pressure;Samples;Min_cycle;Max_cycle;Signal;HPM_P1;HPM_P2
2022/08/29 00:01:00;;;;;;;15.50;8.50;;;;;;;14.70;93.09;100910.28;4965215;28;20050;-74
2022/08/29 00:03:27;;;;;;;10.57;8.52;;;;;;;14.58;94.63;100910.47;4963207;28;20039;-74
2022/08/29 00:05:52;;;;;;;16.88;8.55;;;;;;;14.51;95.09;100911.44;4962384;28;20402;-75
2022/08/29 00:08:18;;;;;;;11.25;8.20;;;;;;;14.41;95.47;100903.63;4963170;28;20066;-74
2022/08/29 00:10:44;;;;;;;11.90;7.97;;;;;;;14.38;96.59;100903.69;4965433;28;20065;-75
2022/08/29 00:13:11;;;;;;;9.25;8.35;;;;;;;14.28;97.39;100912.69;4961946;28;20035;-75
2022/08/29 00:15:36;;;;;;;9.90;8.20;;;;;;;14.22;97.32;100912.75;4964788;28;20109;-74
2022/08/29 00:18:02;;;;;;;13.15;9.43;;;;;;;14.20;97.77;100919.84;4963158;28;20479;-75
2022/08/29 00:20:30;;;;;;;13.98;8.57;;;;;;;14.06;99.31;100928.03;4963372;28;20039;-74
2022/08/29 00:22:56;;;;;;;14.82;9.52;;;;;;;13.97;100.00;100925.53;4964857;28;20041;-74
2022/08/29 00:25:22;;;;;;;15.05;8.70;;;;;;;13.91;100.00;100926.50;4962060;28;20383;-74
2022/08/29 00:27:47;;;;;;;15.35;8.70;;;;;;;13.96;100.00;100923.75;4965127;28;20096;-74
2022/08/29 00:30:14;;;;;;;11.10;8.10;;;;;;;14.00;99.95;100933.44;4962894;28;20118;-74
2022/08/29 00:32:39;;;;;;;10.60;8.65;;;;;;;14.00;99.42;100929.00;4963214;28;20031;-74
2022/08/29 00:35:09;;;;;;;10.90;8.65;;;;;;;14.00;99.13;100929.00;4961749;28;20039;-74
2022/08/29 00:37:34;;;;;;;16.50;8.82;;;;;;;14.00;99.00;100928.13;4959513;28;20123;-74
2022/08/29 00:40:00;;;;;;;14.77;9.07;;;;;;;13.98;99.39;100929.91;4958231;28;20511;-75
2022/08/29 00:42:26;;;;;;;18.40;8.25;;;;;;;13.96;99.53;100932.63;4961004;28;20041;-74
2022/08/29 00:44:51;;;;;;;18.50;9.40;;;;;;;13.90;99.68;100927.38;4959300;28;20045;-74
2022/08/29 00:47:21;;;;;;;16.55;8.73;;;;;;;13.88;100.00;100937.13;4941938;28;20066;-74
2022/08/29 00:49:51;;;;;;;17.23;9.30;;;;;;;13.89;100.00;100936.25;4964913;28;20534;-74
2022/08/29 00:52:25;;;;;;;13.65;9.52;;;;;;;13.88;100.00;100934.47;4958870;28;20035;-74
2022/08/29 00:54:54;;;;;;;13.55;9.90;;;;;;;13.87;100.00;100937.16;4962572;28;20039;-75
2022/08/29 00:57:20;;;;;;;12.50;8.10;;;;;;;13.80;99.35;100936.34;4964814;28;20097;-74
2022/08/29 00:59:47;;;;;;;9.40;7.70;;;;;;;13.76;99.45;100932.88;4961859;28;20110;-74
2022/08/29 01:02:13;;;;;;;10.90;7.75;;;;;;;13.68;99.48;100941.81;4963167;28;20065;-74
2022/08/29 01:04:39;;;;;;;13.02;8.63;;;;;;;13.63;99.89;100938.34;4962843;28;20078;-74
2022/08/29 01:07:08;;;;;;;11.73;8.60;;;;;;;13.59;100.00;100942.78;4962458;28;20035;-74
2022/08/29 01:09:36;;;;;;;14.82;8.02;;;;;;;13.52;100.00;100947.31;4964571;28;20066;-74
2022/08/29 01:12:14;;;;;;;11.70;7.55;;;;;;;13.50;100.00;100943.78;4961751;28;20094;-74
2022/08/29 01:14:50;;;;;;;15.02;7.80;;;;;;;13.41;100.00;100948.31;4961612;28;20035;-74
2022/08/29 01:17:38;;;;;;;13.85;7.82;;;;;;;13.35;100.00;100941.31;4959513;28;20039;-74
2022/08/29 01:20:17;;;;;;;13.38;8.05;;;;;;;13.27;100.00;100937.88;4958840;28;20047;-74
2022/08/29 01:22:59;;;;;;;13.07;8.10;;;;;;;13.18;100.00;100940.56;4961082;28;20035;-74
2022/08/29 01:25:30;;;;;;;12.57;8.55;;;;;;;13.12;100.00;100942.38;4944997;28;20039;-74
2022/08/29 01:28:11;;;;;;;20.85;9.73;;;;;;;13.14;100.00;100950.31;4964452;28;20038;-75
2022/08/29 01:30:56;;;;;;;15.25;8.63;;;;;;;13.14;100.00;100945.03;4956082;28;20063;-75
2022/08/29 01:33:22;;;;;;;15.30;9.50;;;;;;;13.18;100.00;100951.16;4960797;28;20047;-74
2022/08/29 01:35:47;;;;;;;14.20;8.70;;;;;;;13.05;100.00;100950.44;4958225;28;20031;-74
2022/08/29 01:38:26;;;;;;;15.10;7.70;;;;;;;12.91;100.00;100955.84;4963650;28;20501;-74
2022/08/29 01:40:54;;;;;;;11.40;7.35;;;;;;;12.91;100.00;100947.91;4956602;28;20560;-75
2022/08/29 01:43:21;;;;;;;8.02;7.25;;;;;;;12.91;100.00;100951.41;4946085;28;20031;-75
2022/08/29 01:45:47;;;;;;;13.68;8.75;;;;;;;12.88;100.00;100950.56;4960860;28;20043;-74
2022/08/29 01:48:13;;;;;;;9.45;7.50;;;;;;;12.79;100.00;100955.97;4937774;28;20050;-74
2022/08/29 01:50:38;;;;;;;13.27;8.00;;;;;;;12.74;100.00;100944.53;4941559;28;20118;-74
2022/08/29 01:53:03;;;;;;;13.70;9.23;;;;;;;12.77;100.00;100957.75;4962503;28;20035;-74
2022/08/29 01:55:29;;;;;;;14.07;8.75;;;;;;;12.77;100.00;100955.97;4962808;28;20046;-74
2022/08/29 01:57:54;;;;;;;14.05;9.45;;;;;;;12.77;100.00;100957.75;4959857;28;20047;-74
2022/08/29 02:00:21;;;;;;;16.17;9.65;;;;;;;12.71;100.00;100956.91;4942000;28;20035;-74
2022/08/29 02:02:46;;;;;;;17.17;9.30;;;;;;;12.73;100.00;100954.22;4963615;28;20421;-74
2022/08/29 02:05:12;;;;;;;18.50;9.73;;;;;;;12.78;100.00;100957.72;4959635;28;20074;-74
2022/08/29 02:07:37;;;;;;;12.82;9.18;;;;;;;12.80;100.00;100955.06;4962699;28;20038;-74
2022/08/29 02:10:04;;;;;;;12.38;8.40;;;;;;;12.77;100.00;100955.97;4962649;28;20085;-74
2022/08/29 02:12:30;;;;;;;10.85;8.25;;;;;;;12.70;100.00;100957.78;4961096;28;20078;-74
2022/08/29 02:14:56;;;;;;;15.20;8.52;;;;;;;12.66;100.00;100956.06;4963879;28;20074;-74
2022/08/29 02:17:22;;;;;;;14.23;8.80;;;;;;;12.61;100.00;100954.34;4960915;28;20043;-74
2022/08/29 02:19:47;;;;;;;14.20;8.10;;;;;;;12.58;100.00;100960.53;4963166;28;20109;-74
2022/08/29 02:22:14;;;;;;;9.45;5.85;;;;;;;12.56;100.00;100951.72;4961919;28;20497;-75
2022/08/29 02:24:40;;;;;;;9.55;7.38;;;;;;;12.54;100.00;100953.50;4961766;28;20043;-74
2022/08/29 02:27:06;;;;;;;8.70;6.57;;;;;;;12.48;100.00;100957.06;4963425;28;20045;-75
2022/08/29 02:29:31;;;;;;;9.82;6.75;;;;;;;12.43;100.00;100960.66;4960533;28;20050;-74
2022/08/29 02:31:56;;;;;;;16.52;7.93;;;;;;;12.37;100.00;100953.63;4963222;28;20039;-74
2022/08/29 02:34:22;;;;;;;10.48;7.97;;;;;;;12.38;100.00;100957.16;4959820;28;20039;-74
2022/08/29 02:36:48;;;;;;;10.02;6.95;;;;;;;12.32;100.00;100958.06;4961751;28;20046;-74
2022/08/29 02:39:13;;;;;;;14.48;7.97;;;;;;;12.27;100.00;100960.75;4944606;28;20030;-74
2022/08/29 02:41:38;;;;;;;10.18;7.57;;;;;;;12.25;100.00;100962.50;4964466;28;20043;-74
2022/08/29 02:44:04;;;;;;;12.07;8.63;;;;;;;12.24;100.00;100962.53;4959643;28;20035;-74
2022/08/29 02:46:30;;;;;;;15.60;8.23;;;;;;;12.20;100.00;100964.31;4961713;28;20043;-74
2022/08/29 02:48:55;;;;;;;8.73;7.50;;;;;;;12.18;100.00;100962.56;4946155;28;20113;-74
2022/08/29 02:51:27;;;;;;;14.50;7.47;;;;;;;12.14;100.00;100958.19;4955351;28;20509;-74
2022/08/29 02:53:54;;;;;;;12.20;7.50;;;;;;;12.12;100.00;100967.91;4956630;28;20089;-74
2022/08/29 02:56:19;;;;;;;7.30;6.55;;;;;;;12.08;100.00;100967.03;4957943;28;20066;-74
2022/08/29 02:58:46;;;;;;;10.05;7.85;;;;;;;12.07;100.00;100962.63;4945902;28;20074;-74
2022/08/29 03:01:12;;;;;;;10.07;8.18;;;;;;;12.07;100.00;100965.25;4964242;28;20047;-74
2022/08/29 03:03:38;;;;;;;17.85;7.85;;;;;;;12.09;100.00;100970.56;4965659;28;20748;-74
2022/08/29 03:06:04;;;;;;;18.00;7.55;;;;;;;12.09;100.00;100965.28;4962028;28;20042;-74
2022/08/29 03:08:29;;;;;;;14.60;7.95;;;;;;;12.07;100.00;100971.44;4963918;28;20047;-74
2022/08/29 03:10:55;;;;;;;10.80;8.20;;;;;;;12.04;100.00;100974.09;4966550;28;20063;-75
2022/08/29 03:13:20;;;;;;;11.20;6.38;;;;;;;12.00;100.00;100977.66;4945795;28;20482;-75
2022/08/29 03:15:46;;;;;;;10.52;6.55;;;;;;;11.91;100.00;100976.81;4948489;28;20038;-74
2022/08/29 03:18:13;;;;;;;15.60;7.88;;;;;;;11.85;100.00;100983.84;4964724;28;20043;-74
2022/08/29 03:20:38;;;;;;;11.30;6.28;;;;;;;11.81;100.00;100976.81;4964276;28;20560;-74
2022/08/29 03:23:04;;;;;;;8.02;7.13;;;;;;;11.80;100.00;100971.53;4965659;28;20035;-74
2022/08/29 03:25:30;;;;;;;8.57;6.40;;;;;;;11.78;100.00;100982.13;4963058;28;20039;-75
2022/08/29 03:27:58;;;;;;;10.32;7.53;;;;;;;11.76;100.00;100978.63;4962998;28;20054;-74
2022/08/29 03:30:24;;;;;;;12.73;8.02;;;;;;;11.77;100.00;100977.72;4965201;28;20549;-74
2022/08/29 03:32:49;;;;;;;11.52;6.75;;;;;;;11.80;100.00;100980.34;4963899;28;20049;-74
2022/08/29 03:35:16;;;;;;;9.25;7.00;;;;;;;11.77;100.00;100976.84;4956557;28;20030;-74
2022/08/29 03:37:42;;;;;;;9.68;7.53;;;;;;;11.77;100.00;100975.06;4961940;28;20043;-74
2022/08/29 03:40:09;;;;;;;8.20;6.68;;;;;;;11.73;100.00;100978.59;4959982;28;20035;-75
2022/08/29 03:42:35;;;;;;;11.38;8.27;;;;;;;11.73;100.00;100983.91;4962756;28;20659;-74
2022/08/29 03:45:08;;;;;;;11.88;7.60;;;;;;;11.69;100.00;100982.16;4962050;28;20504;-74
2022/08/29 03:47:33;;;;;;;13.85;7.47;;;;;;;11.64;100.00;100983.94;4963284;28;20516;-74
2022/08/29 03:49:59;;;;;;;11.30;7.75;;;;;;;11.65;100.00;100985.69;4960707;28;20035;-74
2022/08/29 03:52:24;;;;;;;10.02;8.55;;;;;;;11.66;100.00;100981.28;4964514;28;20575;-74
2022/08/29 03:54:49;;;;;;;10.40;6.85;;;;;;;11.68;100.00;100984.81;4961840;28;20046;-74
2022/08/29 03:57:15;;;;;;;8.90;7.32;;;;;;;11.61;100.00;100981.31;4963917;28;20043;-74
2022/08/29 03:59:41;;;;;;;11.15;7.88;;;;;;;11.54;100.00;100991.00;4963516;28;20043;-74
2022/08/29 04:02:07;;;;;;;12.63;7.68;;;;;;;11.53;100.00;100981.34;4947813;28;20117;-74
2022/08/29 04:07:16;;;;;;;13.02;8.15;;;;;;;11.56;100.00;100991.91;4962046;28;20034;-74
2022/08/29 04:09:42;;;;;;;11.88;8.95;;;;;;;11.57;100.00;100988.34;4962207;28;20046;-74
2022/08/29 04:12:10;;;;;;;18.23;8.77;;;;;;;11.58;100.00;100994.50;4961942;28;20039;-74
2022/08/29 04:14:36;;;;;;;12.70;9.00;;;;;;;11.58;100.00;100994.50;4964250;28;20041;-75
2022/08/29 04:17:03;;;;;;;11.32;8.77;;;;;;;11.57;100.00;100993.66;4963711;28;20490;-74
2022/08/29 04:19:29;;;;;;;16.63;9.70;;;;;;;11.59;100.00;100996.28;4962829;28;20175;-74
2022/08/29 04:21:55;;;;;;;15.90;9.02;;;;;;;11.59;100.00;100999.81;4964981;28;20582;-75
2022/08/29 04:24:21;;;;;;;11.20;7.80;;;;;;;11.56;100.00;100993.66;4955796;28;20034;-75
2022/08/29 04:26:47;;;;;;;9.88;7.45;;;;;;;11.51;100.00;100993.66;4935575;28;20031;-75
2022/08/29 04:29:12;;;;;;;9.88;7.13;;;;;;;11.49;100.00;100998.06;4963032;28;20031;-74
2022/08/29 04:31:40;;;;;;;8.90;7.38;;;;;;;11.49;100.00;100989.28;4939305;29;20072;-74
2022/08/29 04:34:06;;;;;;;11.60;7.72;;;;;;;11.48;100.00;100992.81;4959795;28;20066;-74
2022/08/29 04:36:36;;;;;;;17.38;8.93;;;;;;;11.46;100.00;100997.22;4956933;28;20050;-74
2022/08/29 04:39:04;;;;;;;8.68;6.93;;;;;;;11.41;100.00;100990.16;4959895;28;20031;-74
2022/08/29 04:41:29;;;;;;;9.40;8.27;;;;;;;11.40;100.00;100991.06;4961730;28;20474;-75
2022/08/29 04:43:54;;;;;;;11.85;9.07;;;;;;;11.43;100.00;100998.09;4953790;28;20049;-75
2022/08/29 04:46:20;;;;;;;11.00;8.13;;;;;;;11.50;100.00;100993.66;4956630;28;20701;-74
2022/08/29 04:48:46;;;;;;;15.15;8.23;;;;;;;11.53;100.00;100993.69;4938434;28;20035;-74
2022/08/29 04:51:11;;;;;;;12.52;8.23;;;;;;;11.61;100.00;100989.25;4949358;28;20039;-75
2022/08/29 04:53:37;;;;;;;15.27;8.52;;;;;;;11.69;100.00;100992.75;4931460;29;20061;-75
2022/08/29 04:56:09;;;;;;;10.63;8.85;;;;;;;11.76;100.00;100998.88;4953873;28;20095;-74
2022/08/29 04:58:37;;;;;;;12.45;8.93;;;;;;;11.81;100.00;100994.44;4953832;28;20050;-74
2022/08/29 05:01:06;;;;;;;14.60;9.82;;;;;;;11.89;100.00;101000.63;4958773;28;20038;-75
2022/08/29 05:03:32;;;;;;;16.08;9.55;;;;;;;11.97;100.00;101009.44;4960386;28;20090;-74
2022/08/29 05:06:06;;;;;;;10.52;8.30;;;;;;;12.05;100.00;101017.31;4956394;28;20099;-74
2022/08/29 05:08:33;;;;;;;11.63;8.48;;;;;;;12.10;100.00;101018.16;4958586;28;20038;-74
2022/08/29 05:10:59;;;;;;;16.95;9.32;;;;;;;12.18;100.00;101008.44;4961378;28;20039;-74
2022/08/29 05:13:24;;;;;;;11.27;9.25;;;;;;;12.25;100.00;101012.78;4957013;28;20039;-74
2022/08/29 05:15:49;;;;;;;14.38;9.65;;;;;;;12.31;100.00;101018.94;4961331;28;20056;-74
2022/08/29 05:18:18;;;;;;;14.80;8.25;;;;;;;12.37;100.00;101018.94;4946189;28;20505;-74
2022/08/29 05:20:47;;;;;;;16.50;9.65;;;;;;;12.46;100.00;101024.16;4942833;28;20043;-74
2022/08/29 05:23:15;;;;;;;12.32;8.68;;;;;;;12.53;100.00;101022.38;4963529;28;20034;-74
2022/08/29 05:25:41;;;;;;;11.70;9.23;;;;;;;12.59;99.73;101025.84;4962466;28;20039;-75
2022/08/29 05:28:10;;;;;;;13.45;8.50;;;;;;;12.68;99.48;101030.19;4962016;28;20046;-74
2022/08/29 05:30:39;;;;;;;13.30;9.07;;;;;;;12.74;98.78;101024.00;4964391;28;20030;-74
2022/08/29 05:33:06;;;;;;;12.40;9.82;;;;;;;12.83;98.30;101031.84;4958058;28;20482;-74
2022/08/29 05:35:33;;;;;;;14.25;8.70;;;;;;;12.89;98.43;101027.41;4960960;28;20081;-74
2022/08/29 05:38:00;;;;;;;12.13;9.05;;;;;;;12.94;97.33;101030.00;4962047;28;20041;-75
2022/08/29 05:40:26;;;;;;;18.75;9.07;;;;;;;13.00;95.95;101027.31;4961156;28;20027;-74
2022/08/29 05:42:51;;;;;;;12.65;9.20;;;;;;;13.09;96.05;101036.94;4960518;28;20034;-74
2022/08/29 05:45:16;;;;;;;11.60;8.43;;;;;;;13.18;95.76;101028.94;4954217;28;20501;-74
2022/08/29 05:48:04;;;;;;;10.95;8.25;;;;;;;13.30;94.69;101035.91;4958981;28;20039;-74
2022/08/29 05:50:30;;;;;;;13.02;10.32;;;;;;;13.36;93.66;101041.13;4959603;28;20121;-75
2022/08/29 05:52:55;;;;;;;16.98;9.60;;;;;;;13.46;93.66;101036.63;4959325;28;20074;-74
2022/08/29 05:55:20;;;;;;;11.77;9.63;;;;;;;13.55;93.18;101042.72;4962494;28;20039;-74
2022/08/29 05:57:48;;;;;;;12.45;9.02;;;;;;;13.64;93.17;101040.88;4961763;28;20039;-74
2022/08/29 06:00:15;;;;;;;10.13;8.30;;;;;;;13.73;91.88;101043.44;4956712;28;20047;-74
2022/08/29 06:02:40;;;;;;;15.15;9.63;;;;;;;13.73;89.96;101046.09;4957109;28;20113;-74
2022/08/29 06:05:05;;;;;;;14.55;9.20;;;;;;;13.76;89.46;101048.72;4960109;28;20508;-74
2022/08/29 06:07:32;;;;;;;16.65;9.27;;;;;;;13.85;89.12;101045.06;4962000;28;20121;-74
2022/08/29 06:09:57;;;;;;;14.98;9.10;;;;;;;13.92;89.13;101046.75;4944601;28;20042;-74
2022/08/29 06:12:23;;;;;;;11.27;9.23;;;;;;;13.99;88.45;101046.69;4962995;28;20383;-76
2022/08/29 06:14:48;;;;;;;10.55;8.98;;;;;;;14.10;88.95;101054.50;4960750;28;20043;-75
2022/08/29 06:17:14;;;;;;;16.65;9.90;;;;;;;14.21;88.56;101054.38;4967531;28;20042;-74
2022/08/29 06:19:39;;;;;;;12.18;8.80;;;;;;;14.29;87.84;101063.09;4964317;28;20046;-75
2022/08/29 06:22:07;;;;;;;14.63;9.55;;;;;;;14.36;87.82;101059.47;4965000;28;20035;-75
2022/08/29 06:24:33;;;;;;;11.63;10.43;;;;;;;14.42;87.90;101059.38;4964223;28;20035;-74
2022/08/29 06:26:59;;;;;;;13.93;10.15;;;;;;;14.46;87.58;101065.53;4964638;28;20498;-74
2022/08/29 06:29:26;;;;;;;17.00;10.07;;;;;;;14.48;86.62;101064.59;4967178;28;20042;-75
2022/08/29 06:31:54;;;;;;;14.77;10.18;;;;;;;14.57;85.88;101062.78;4964048;28;20039;-75
2022/08/29 06:34:19;;;;;;;15.65;9.68;;;;;;;14.67;85.07;101080.31;4946836;29;20031;-75
2022/08/29 06:36:44;;;;;;;18.02;10.60;;;;;;;14.68;84.16;101068.81;4960410;28;20047;-75
2022/08/29 06:39:10;;;;;;;14.48;9.45;;;;;;;14.80;84.22;101076.59;4965304;28;20030;-75
2022/08/29 06:41:37;;;;;;;12.57;10.50;;;;;;;14.94;85.17;101078.19;4963877;28;20058;-74
2022/08/29 06:44:05;;;;;;;14.68;11.00;;;;;;;15.01;83.85;101075.41;4960667;28;20038;-75
2022/08/29 06:46:37;;;;;;;11.23;9.63;;;;;;;15.19;83.87;101070.66;4965975;28;20096;-75
2022/08/29 06:49:05;;;;;;;15.40;10.77;;;;;;;15.24;83.64;101075.00;4966113;28;20042;-75
2022/08/29 06:51:31;;;;;;;16.63;10.43;;;;;;;15.34;82.61;101081.94;4954913;28;20039;-74
2022/08/29 06:54:02;;;;;;;11.60;9.63;;;;;;;15.47;82.60;101079.94;4964847;28;20636;-75
2022/08/29 06:56:28;;;;;;;14.88;9.77;;;;;;;15.50;81.35;101079.88;4941968;28;20113;-74
2022/08/29 06:58:54;;;;;;;15.45;9.80;;;;;;;15.52;81.84;101077.19;4964747;28;20049;-74
2022/08/29 07:01:20;;;;;;;13.05;10.15;;;;;;;15.66;82.40;101069.84;4957717;28;20043;-74
2022/08/29 07:03:46;;;;;;;12.30;9.35;;;;;;;15.79;81.37;101073.19;4948615;28;20039;-74
2022/08/29 07:06:12;;;;;;;14.95;9.73;;;;;;;15.94;81.11;101080.00;4957860;28;20482;-75
2022/08/29 07:08:38;;;;;;;12.02;10.18;;;;;;;16.03;80.43;101085.13;4946856;28;20034;-75
2022/08/29 07:11:03;;;;;;;13.02;9.60;;;;;;;16.12;81.17;101084.97;4949388;28;20490;-74
2022/08/29 07:13:30;;;;;;;15.80;10.40;;;;;;;16.17;79.13;101085.75;4963328;28;20041;-74
2022/08/29 07:15:56;;;;;;;11.40;9.32;;;;;;;16.27;78.15;101090.88;4958949;28;20039;-75
2022/08/29 07:18:21;;;;;;;15.60;10.00;;;;;;;16.32;77.43;101091.66;4967539;28;20057;-74
2022/08/29 07:20:47;;;;;;;12.60;10.07;;;;;;;16.38;78.17;101094.19;4931564;28;20497;-74
2022/08/29 07:23:12;;;;;;;15.93;10.30;;;;;;;16.54;78.02;101090.28;4960930;28;20481;-75
2022/08/29 07:25:37;;;;;;;13.45;10.00;;;;;;;16.57;77.18;101087.56;4963966;28;20133;-75
2022/08/29 07:28:03;;;;;;;16.00;10.13;;;;;;;16.67;78.34;101090.03;4958122;28;20122;-75
2022/08/29 07:30:29;;;;;;;12.20;8.50;;;;;;;16.84;76.23;101077.19;4963257;28;20049;-74
2022/08/29 07:32:54;;;;;;;11.65;9.93;;;;;;;16.96;77.11;101084.06;4963847;28;20039;-74
2022/08/29 07:35:20;;;;;;;11.75;9.38;;;;;;;17.02;75.57;101076.75;4958584;28;20043;-75
2022/08/29 07:37:45;;;;;;;16.85;9.70;;;;;;;17.04;75.10;101071.41;4965172;28;20039;-75
2022/08/29 07:40:15;;;;;;;13.18;9.05;;;;;;;17.00;74.80;101080.38;4961915;28;20133;-75
2022/08/29 07:42:41;;;;;;;10.38;9.32;;;;;;;17.12;74.81;101073.88;4962585;28;20043;-75
2022/08/29 07:45:08;;;;;;;10.50;8.80;;;;;;;17.17;74.21;101080.00;4959140;28;20062;-74
2022/08/29 07:47:34;;;;;;;11.77;8.23;;;;;;;17.35;73.84;101076.00;4959358;28;20039;-74
2022/08/29 07:50:06;;;;;;;9.85;8.52;;;;;;;17.47;74.62;101071.19;4962932;28;20042;-75
2022/08/29 07:52:31;;;;;;;13.35;9.30;;;;;;;17.50;73.72;101070.22;4959444;28;20039;-75
2022/08/29 07:54:56;;;;;;;11.43;8.82;;;;;;;17.52;72.21;101085.28;4955467;28;20046;-75
2022/08/29 07:57:22;;;;;;;13.77;9.13;;;;;;;17.53;71.79;101079.06;4951895;28;20070;-74
2022/08/29 07:59:48;;;;;;;11.95;8.45;;;;;;;17.52;71.76;101090.63;4963060;28;20034;-75
2022/08/29 08:02:13;;;;;;;15.05;9.75;;;;;;;17.56;71.91;101093.25;4955382;28;20091;-74
2022/08/29 08:04:39;;;;;;;12.75;8.25;;;;;;;17.58;70.44;101094.06;4953817;28;20041;-74
2022/08/29 08:07:05;;;;;;;14.40;8.98;;;;;;;17.62;71.50;101069.03;4960045;28;20501;-75
2022/08/29 08:09:30;;;;;;;10.82;9.63;;;;;;;17.64;70.55;101073.44;4964320;28;20470;-75
2022/08/29 08:11:56;;;;;;;14.82;8.23;;;;;;;17.72;69.97;101079.44;4961996;28;20030;-74
2022/08/29 08:14:21;;;;;;;10.13;7.80;;;;;;;17.80;70.89;101073.91;4960786;28;20069;-74
2022/08/29 08:16:46;;;;;;;12.90;8.98;;;;;;;18.01;71.03;101085.78;4962763;28;20146;-75
2022/08/29 08:19:13;;;;;;;11.30;8.85;;;;;;;18.01;69.60;101068.91;4964290;28;20042;-75
2022/08/29 08:21:39;;;;;;;11.50;9.32;;;;;;;18.13;69.00;101077.44;4963598;28;20047;-75
2022/08/29 08:24:04;;;;;;;12.32;9.13;;;;;;;18.16;69.30;101074.69;4962691;28;20493;-75
2022/08/29 08:26:30;;;;;;;10.07;8.18;;;;;;;18.33;69.09;101074.19;4964974;28;20042;-75
2022/08/29 08:28:55;;;;;;;16.33;9.77;;;;;;;18.43;68.98;101084.59;4961875;28;20046;-74
2022/08/29 08:31:21;;;;;;;11.38;8.65;;;;;;;18.49;65.92;101101.31;4957940;28;20039;-75
2022/08/29 08:33:46;;;;;;;11.27;8.10;;;;;;;18.37;66.02;101094.56;4946348;28;20045;-74
2022/08/29 08:36:20;;;;;;;12.15;8.88;;;;;;;18.44;66.14;101089.00;4959672;28;20073;-75
2022/08/29 08:38:46;;;;;;;9.10;8.25;;;;;;;18.63;65.61;101095.56;4961506;28;20406;-75
2022/08/29 08:41:39;;;;;;;15.45;8.15;;;;;;;18.72;65.05;101089.06;4925159;29;20490;-75
2022/08/29 08:44:36;;;;;;;9.38;8.48;;;;;;;19.05;65.87;101097.84;4962343;28;20042;-74
2022/08/29 08:47:06;;;;;;;10.27;9.15;;;;;;;19.21;64.63;101080.38;4895908;28;20090;-75
2022/08/29 08:49:41;;;;;;;12.43;9.23;;;;;;;19.12;62.06;101102.06;4961813;28;20153;-75
2022/08/29 08:52:16;;;;;;;10.88;9.55;;;;;;;19.05;63.39;101084.47;4959537;28;20098;-74
2022/08/29 08:54:53;;;;;;;12.48;10.38;;;;;;;19.25;63.36;101092.69;4960688;28;20097;-75
2022/08/29 08:57:20;;;;;;;14.68;10.07;;;;;;;19.51;62.58;101080.25;4960267;28;20066;-75
2022/08/29 08:59:53;;;;;;;11.40;9.93;;;;;;;19.68;63.32;101077.91;4962399;28;20042;-75
2022/08/29 09:02:50;;;;;;;11.20;9.65;;;;;;;19.65;60.90;101086.00;4964282;28;20567;-75
2022/08/29 09:05:26;;;;;;;13.48;9.90;;;;;;;19.60;61.44;101089.78;4957803;28;20074;-75
2022/08/29 09:08:04;;;;;;;16.70;10.43;;;;;;;19.58;61.00;101083.59;4947069;28;20047;-74
2022/08/29 09:10:36;;;;;;;12.25;10.35;;;;;;;19.55;61.36;101089.06;4944193;28;20039;-74
2022/08/29 09:13:29;;;;;;;13.68;10.00;;;;;;;19.54;61.54;101093.53;4961536;28;20097;-75
2022/08/29 09:15:58;;;;;;;10.50;9.50;;;;;;;19.57;60.71;101085.41;4947041;28;20039;-75
2022/08/29 09:18:37;;;;;;;11.45;10.35;;;;;;;19.78;60.44;101082.91;4962897;28;20408;-75
2022/08/29 09:21:05;;;;;;;15.25;14.00;;;;;;;19.81;58.64;101082.81;4960838;28;20039;-75
2022/08/29 09:23:42;;;;;;;12.23;10.43;;;;;;;19.96;59.05;101084.06;4957633;28;20038;-74
2022/08/29 09:26:08;;;;;;;11.35;10.32;;;;;;;20.04;59.06;101081.97;4962345;28;20390;-75
2022/08/29 09:28:34;;;;;;;11.48;10.30;;;;;;;20.20;57.84;101075.13;4964034;28;20042;-74
2022/08/29 09:31:21;;;;;;;10.32;9.32;;;;;;;20.46;57.55;101079.50;4943933;28;20035;-74
2022/08/29 09:34:06;;;;;;;10.65;9.70;;;;;;;20.44;54.74;101091.22;4960613;28;20054;-75
2022/08/29 09:36:40;;;;;;;11.52;10.55;;;;;;;20.36;54.92;101088.84;4959751;28;20046;-75
2022/08/29 09:39:17;;;;;;;13.38;12.48;;;;;;;20.54;54.38;101072.06;4960902;28;20050;-75
2022/08/29 09:41:46;;;;;;;12.23;11.07;;;;;;;20.73;54.96;101065.97;4960960;28;20135;-74
2022/08/29 09:44:18;;;;;;;11.40;10.40;;;;;;;21.19;54.76;101077.50;4957220;28;20565;-75
2022/08/29 09:46:44;;;;;;;12.05;10.95;;;;;;;20.93;54.35;101087.53;4962645;28;20039;-75
2022/08/29 09:49:13;;;;;;;10.25;9.48;;;;;;;20.57;54.01;101088.03;4951124;28;20039;-75
2022/08/29 09:51:47;;;;;;;10.23;9.32;;;;;;;20.21;55.43;101090.28;4954497;28;20039;-75
2022/08/29 09:54:21;;;;;;;10.60;9.80;;;;;;;20.10;54.94;101090.69;4957346;28;20079;-74
2022/08/29 09:57:14;;;;;;;13.35;9.25;;;;;;;20.01;56.01;101093.69;4963222;28;20081;-74
2022/08/29 09:59:44;;;;;;;11.50;10.70;;;;;;;20.18;55.65;101084.16;4967389;28;20509;-75
2022/08/29 10:02:24;;;;;;;11.75;10.32;;;;;;;20.58;55.28;101081.72;4960989;28;20069;-75
2022/08/29 10:05:05;;;;;;;12.25;11.30;;;;;;;21.19;55.07;101072.13;4946653;28;20047;-74
2022/08/29 10:07:45;;;;;;;13.02;12.02;;;;;;;21.60;52.94;101065.03;4964463;28;20101;-75
2022/08/29 10:10:20;;;;;;;12.48;11.57;;;;;;;21.64;52.79;101082.78;4944614;28;20038;-75
2022/08/29 10:12:56;;;;;;;11.07;10.13;;;;;;;21.38;54.05;101064.25;4962844;28;20066;-75
2022/08/29 10:15:28;;;;;;;12.15;11.13;;;;;;;21.25;54.06;101069.22;4958474;28;20139;-75
2022/08/29 10:21:14;;;;;;;14.35;10.70;;;;;;;20.56;55.66;101067.50;4957778;28;20094;-75
2022/08/29 10:23:59;;;;;;;;;;;;;;;20.85;55.61;101069.97;4950261;28;20043;-75
2022/08/29 10:26:51;;;;;;;10.48;9.68;;;;;;;21.25;55.36;101061.16;4967085;28;19922;-75
2022/08/29 10:29:38;;;;;;;11.05;10.25;;;;;;;21.83;51.88;101061.34;4966321;28;20078;-75
2022/08/29 10:32:12;;;;;;;11.45;10.48;;;;;;;21.85;52.92;101066.63;4937090;29;20035;-75
2022/08/29 10:35:13;;;;;;;13.30;11.95;;;;;;;21.88;53.23;101063.84;4959388;28;20043;-75
2022/08/29 10:38:11;;;;;;;15.18;13.73;;;;;;;21.81;53.17;101081.16;4964648;28;20062;-75
2022/08/29 10:40:47;;;;;;;12.65;11.75;;;;;;;21.68;53.69;101067.41;4946220;28;20133;-76
2022/08/29 10:43:31;;;;;;;13.10;11.77;;;;;;;21.41;54.50;101077.53;4963633;28;20075;-76
2022/08/29 10:46:08;;;;;;;12.18;11.18;;;;;;;21.32;55.06;101070.69;4947095;28;20118;-76
2022/08/29 10:48:58;;;;;;;15.63;14.20;;;;;;;21.49;56.11;101077.19;4956853;28;20035;-76
2022/08/29 10:51:39;;;;;;;14.00;12.80;;;;;;;21.91;53.24;101062.81;4951800;28;20498;-76
2022/08/29 10:54:35;;;;;;;14.88;13.40;;;;;;;21.81;53.88;101079.34;4954572;28;20110;-75
2022/08/29 10:57:03;;;;;;;14.25;12.77;;;;;;;21.66;53.75;101077.31;4952395;28;20117;-76
2022/08/29 10:59:49;;;;;;;13.35;12.20;;;;;;;21.64;53.62;101076.50;4951291;28;20054;-76
2022/08/29 11:02:35;;;;;;;11.75;10.68;;;;;;;21.91;50.91;101068.19;4962798;28;20054;-76
2022/08/29 11:05:06;;;;;;;13.90;12.63;;;;;;;22.07;51.67;101069.25;4963460;28;20519;-76
2022/08/29 11:07:45;;;;;;;17.05;15.50;;;;;;;22.34;50.21;101060.88;4929126;28;20036;-76
2022/08/29 11:10:23;;;;;;;13.95;12.85;;;;;;;22.69;49.95;101061.91;4960162;28;20067;-76
2022/08/29 11:13:01;;;;;;;13.55;10.93;;;;;;;22.99;49.74;101058.69;4962276;28;20075;-76
2022/08/29 11:15:37;;;;;;;14.15;10.95;;;;;;;23.00;49.53;101072.06;4954671;28;20043;-76
2022/08/29 11:18:17;;;;;;;18.40;17.00;;;;;;;22.44;50.34;101064.88;4962874;28;20035;-76
2022/08/29 11:20:48;;;;;;;12.05;10.57;;;;;;;22.31;52.20;101062.75;4960630;28;20682;-76
2022/08/29 11:23:40;;;;;;;13.37;12.13;;;;;;;22.58;50.98;101065.09;4965148;28;20037;-76
2022/08/29 11:26:22;;;;;;;12.13;11.10;;;;;;;22.74;50.62;101057.16;4961004;28;20756;-76
2022/08/29 11:29:01;;;;;;;13.63;12.60;;;;;;;23.28;49.18;101054.53;4958599;28;20090;-76